createdAt,value
2019-04-21T00:01:16.554Z,18.32
2019-04-21T00:03:52.110Z,22.25
2019-04-21T00:06:36.746Z,22.95
2019-04-21T00:09:11.528Z,20.08
2019-04-21T00:11:41.114Z,17.62
2019-04-21T00:14:03.743Z,19.73
2019-04-21T00:16:32.129Z,20.48
2019-04-21T00:19:03.359Z,23.22
2019-04-21T00:21:36.497Z,20.97
2019-04-21T00:24:26.538Z,20.23
2019-04-21T00:27:04.208Z,20.97
2019-04-21T00:29:40.999Z,23.77
2019-04-21T00:32:03.381Z,26.17
2019-04-21T00:34:19.448Z,22.02
2019-04-21T00:37:01.210Z,25.90
2019-04-21T00:39:49.059Z,19.20
2019-04-21T00:42:12.910Z,25.10
2019-04-21T00:44:33.258Z,22.10
2019-04-21T00:47:08.502Z,19.32
2019-04-21T00:49:42.734Z,22.27
2019-04-21T00:55:21.815Z,24.05
2019-04-21T00:57:54.766Z,21.10
2019-04-21T01:00:18.672Z,23.12
2019-04-21T01:02:52.533Z,21.00
2019-04-21T01:05:35.249Z,21.82
2019-04-21T01:07:48.250Z,18.80
2019-04-21T01:10:14.416Z,22.37
2019-04-21T01:13:13.948Z,19.77
2019-04-21T01:15:30.605Z,21.40
2019-04-21T01:17:54.639Z,21.45
2019-04-21T01:20:16.464Z,18.65
2019-04-21T01:22:37.653Z,23.15
2019-04-21T01:25:17.523Z,22.75
2019-04-21T01:27:53.690Z,21.27
2019-04-21T01:30:34.616Z,19.42
2019-04-21T01:33:07.761Z,21.68
2019-04-21T01:35:40.259Z,23.05
2019-04-21T01:38:08.156Z,23.32
2019-04-21T01:40:40.903Z,22.65
2019-04-21T01:43:07.730Z,29.45
2019-04-21T01:45:37.651Z,22.87
2019-04-21T01:48:10.350Z,21.90
2019-04-21T01:50:41.156Z,20.60
2019-04-21T01:53:25.584Z,18.17
2019-04-21T01:55:54.377Z,25.45
2019-04-21T01:58:34.161Z,19.42
2019-04-21T02:01:08.687Z,21.07
2019-04-21T02:03:53.190Z,22.55
2019-04-21T02:06:21.379Z,24.30
2019-04-21T02:08:49.311Z,23.52
2019-04-21T02:11:23.126Z,25.43
2019-04-21T02:14:02.013Z,21.60
2019-04-21T02:16:23.884Z,20.95
2019-04-21T02:18:52.591Z,24.07
2019-04-21T02:21:22.951Z,23.25
2019-04-21T02:24:01.907Z,22.70
2019-04-21T02:26:28.552Z,22.60
2019-04-21T02:29:00.202Z,22.70
2019-04-21T02:34:25.900Z,24.18
2019-04-21T02:39:23.152Z,22.95
2019-04-21T02:44:24.341Z,23.30
2019-04-21T02:46:42.198Z,19.12
2019-04-21T02:59:33.786Z,23.05
2019-04-21T03:02:25.739Z,23.07
2019-04-21T03:05:11.683Z,21.62
2019-04-21T03:07:31.878Z,21.57
2019-04-21T03:10:10.762Z,19.23
2019-04-21T03:12:38.625Z,20.77
2019-04-21T03:15:31.556Z,25.00
2019-04-21T03:20:17.422Z,24.92
2019-04-21T03:23:01.434Z,20.27
2019-04-21T03:25:33.181Z,24.98
2019-04-21T03:27:57.255Z,19.10
2019-04-21T03:30:52.927Z,21.37
2019-04-21T03:37:52.886Z,26.17
2019-04-21T03:40:20.199Z,25.92
2019-04-21T03:43:01.842Z,21.60
2019-04-21T03:45:36.918Z,21.95
2019-04-21T03:48:01.504Z,21.93
2019-04-21T03:50:39.700Z,21.25
2019-04-21T03:53:03.530Z,19.73
2019-04-21T04:00:49.930Z,19.32
2019-04-21T04:08:44.712Z,20.05
2019-04-21T04:16:05.965Z,22.07
2019-04-21T04:18:51.190Z,19.40
2019-04-21T04:21:13.090Z,21.82
2019-04-21T04:23:47.291Z,21.12
2019-04-21T04:26:13.075Z,19.07
2019-04-21T04:31:27.778Z,19.07
2019-04-21T04:34:04.503Z,21.12
2019-04-21T04:36:43.047Z,20.75
2019-04-21T04:39:22.532Z,20.77
2019-04-21T04:41:33.162Z,19.90
2019-04-21T04:44:04.895Z,24.20
2019-04-21T04:46:33.360Z,19.42
2019-04-21T04:49:11.011Z,21.77
2019-04-21T04:51:48.403Z,21.30
2019-04-21T04:54:06.265Z,20.12
2019-04-21T04:56:40.454Z,19.85
2019-04-21T04:59:26.083Z,22.00
2019-04-21T05:01:46.009Z,20.02
2019-04-21T05:04:16.352Z,20.68
2019-04-21T05:09:23.461Z,23.15
2019-04-21T05:16:48.399Z,19.23
2019-04-21T05:19:16.159Z,19.20
2019-04-21T05:21:48.061Z,23.32
2019-04-21T05:24:07.496Z,21.00
2019-04-21T05:26:37.100Z,22.25
2019-04-21T05:29:05.218Z,19.98
2019-04-21T05:31:50.905Z,20.17
2019-04-21T05:34:27.671Z,22.87
2019-04-21T05:37:01.349Z,21.30
2019-04-21T05:39:29.651Z,21.07
2019-04-21T05:41:53.763Z,19.90
2019-04-21T05:44:58.822Z,20.92
2019-04-21T05:47:20.759Z,19.90
2019-04-21T05:49:38.783Z,20.45
2019-04-21T05:52:12.079Z,24.47
2019-04-21T05:54:52.943Z,21.02
2019-04-21T05:57:18.938Z,24.43
2019-04-21T05:59:49.106Z,18.65
2019-04-21T06:10:07.253Z,23.87
2019-04-21T06:12:29.893Z,22.55
2019-04-21T06:15:13.823Z,19.98
2019-04-21T06:20:01.765Z,22.82
2019-04-21T06:22:28.937Z,24.10
2019-04-21T06:27:40.375Z,21.73
2019-04-21T06:30:04.168Z,19.20
2019-04-21T06:32:47.066Z,20.62
2019-04-21T06:37:59.864Z,24.80
2019-04-21T06:40:40.673Z,21.23
2019-04-21T06:43:11.361Z,20.55
2019-04-21T06:45:34.948Z,21.95
2019-04-21T06:48:04.177Z,20.92
2019-04-21T06:50:41.220Z,23.35
2019-04-21T06:53:08.811Z,23.07
2019-04-21T06:55:37.813Z,20.37
2019-04-21T06:58:13.165Z,20.37
2019-04-21T07:00:38.459Z,24.75
2019-04-21T07:03:19.298Z,24.25
2019-04-21T07:05:49.000Z,25.08
2019-04-21T07:08:28.825Z,18.55
2019-04-21T07:10:43.443Z,20.17
2019-04-21T07:13:14.228Z,23.47
2019-04-21T07:15:49.926Z,21.65
2019-04-21T07:18:23.020Z,23.30
2019-04-21T07:20:56.594Z,20.40
2019-04-21T07:23:26.821Z,25.32
2019-04-21T07:25:51.437Z,20.68
2019-04-21T07:28:25.454Z,23.20
2019-04-21T07:30:59.495Z,27.80
2019-04-21T07:33:52.309Z,23.87
2019-04-21T07:36:03.760Z,19.42
2019-04-21T07:38:27.442Z,26.62
2019-04-21T07:40:58.811Z,21.40
2019-04-21T07:43:31.559Z,22.93
2019-04-21T07:45:58.142Z,23.18
2019-04-21T07:48:40.213Z,23.52
2019-04-21T07:51:25.177Z,22.90
2019-04-21T07:54:08.666Z,23.40
2019-04-21T07:56:17.837Z,30.37
2019-04-21T07:59:02.268Z,26.10
2019-04-21T08:01:42.397Z,26.45
2019-04-21T08:04:15.853Z,26.00
2019-04-21T08:06:40.373Z,24.07
2019-04-21T08:09:08.964Z,26.02
2019-04-21T08:11:36.750Z,24.55
2019-04-21T08:14:07.133Z,25.00
2019-04-21T08:16:46.124Z,22.90
2019-04-21T08:19:13.063Z,25.08
2019-04-21T08:21:54.102Z,29.98
2019-04-21T08:24:15.019Z,25.92
2019-04-21T08:26:51.509Z,25.40
2019-04-21T08:29:25.715Z,26.70
2019-04-21T08:31:56.538Z,30.50
2019-04-21T08:34:21.482Z,27.30
2019-04-21T08:36:57.478Z,25.70
2019-04-21T08:39:28.895Z,21.80
2019-04-21T08:41:58.965Z,25.40
2019-04-21T08:44:35.261Z,25.02
2019-04-21T08:47:07.749Z,27.40
2019-04-21T08:49:47.987Z,28.70
2019-04-21T08:52:33.155Z,24.70
2019-04-21T08:54:55.712Z,28.55
2019-04-21T08:57:35.691Z,28.35
2019-04-21T09:00:12.509Z,29.50
2019-04-21T09:02:40.425Z,25.25
2019-04-21T09:05:15.433Z,25.48
2019-04-21T09:07:49.577Z,21.42
2019-04-21T09:10:09.538Z,27.22
2019-04-21T09:12:43.239Z,22.70
2019-04-21T09:15:13.874Z,24.32
2019-04-21T09:17:41.093Z,24.30
2019-04-21T09:20:26.492Z,27.87
2019-04-21T09:22:47.811Z,27.40
2019-04-21T09:25:30.907Z,26.20
2019-04-21T09:27:46.776Z,25.02
2019-04-21T09:30:06.947Z,23.30
2019-04-21T09:32:38.559Z,23.65
2019-04-21T09:35:12.428Z,25.17
2019-04-21T09:37:49.544Z,27.82
2019-04-21T09:40:13.442Z,24.77
2019-04-21T09:42:53.183Z,26.12
2019-04-21T09:45:14.383Z,25.05
2019-04-21T09:47:56.713Z,25.02
2019-04-21T09:50:17.492Z,21.75
2019-04-21T09:52:54.510Z,29.72
2019-04-21T09:55:22.915Z,23.75
2019-04-21T09:57:54.003Z,24.92
2019-04-21T10:00:26.546Z,25.40
2019-04-21T10:03:00.599Z,25.05
2019-04-21T10:05:25.185Z,22.42
2019-04-21T10:07:55.310Z,24.57
2019-04-21T10:10:25.285Z,24.67
2019-04-21T10:12:56.276Z,21.55
2019-04-21T10:15:27.849Z,23.50
2019-04-21T10:18:00.454Z,22.95
2019-04-21T10:20:30.885Z,23.22
2019-04-21T10:23:00.686Z,21.97
2019-04-21T10:25:30.688Z,25.10
2019-04-21T10:28:01.285Z,22.48
2019-04-21T10:30:31.009Z,29.48
2019-04-21T10:33:00.766Z,26.37
2019-04-21T10:35:31.086Z,25.35
2019-04-21T10:38:12.900Z,25.35
2019-04-21T10:40:35.238Z,25.92
2019-04-21T10:43:04.005Z,23.57
2019-04-21T10:45:34.895Z,22.30
2019-04-21T10:48:05.162Z,26.40
2019-04-21T10:50:34.954Z,23.05
2019-04-21T10:53:07.031Z,23.35
2019-04-21T10:55:55.904Z,28.80
2019-04-21T10:58:24.897Z,20.77
2019-04-21T11:01:00.039Z,22.22
2019-04-21T11:03:35.265Z,27.77
2019-04-21T11:06:06.692Z,23.92
2019-04-21T11:08:41.489Z,25.88
2019-04-21T11:11:08.001Z,23.95
2019-04-21T11:13:40.819Z,24.67
2019-04-21T11:16:11.043Z,22.20
2019-04-21T11:18:42.137Z,24.60
2019-04-21T11:21:13.116Z,23.35
2019-04-21T11:23:43.855Z,23.52
2019-04-21T11:26:14.002Z,22.10
2019-04-21T11:28:45.236Z,23.77
2019-04-21T11:31:15.433Z,25.65
2019-04-21T11:33:45.281Z,23.98
2019-04-21T11:36:15.585Z,23.27
2019-04-21T11:39:06.135Z,24.00
2019-04-21T11:41:21.700Z,23.12
2019-04-21T11:43:52.991Z,20.52
2019-04-21T11:46:22.936Z,22.02
2019-04-21T11:48:52.632Z,26.27
2019-04-21T11:51:22.806Z,21.48
2019-04-21T11:53:52.891Z,23.10
2019-04-21T11:56:23.161Z,23.25
2019-04-21T11:58:54.076Z,24.90
2019-04-21T12:01:23.799Z,21.57
2019-04-21T12:03:53.814Z,19.52
2019-04-21T12:06:32.234Z,21.57
2019-04-21T12:08:58.114Z,21.33
2019-04-21T12:11:27.278Z,21.12
2019-04-21T12:13:58.282Z,20.90
2019-04-21T12:16:28.842Z,20.40
2019-04-21T12:18:58.858Z,19.40
2019-04-21T12:21:39.092Z,20.37
2019-04-21T12:24:00.703Z,21.17
2019-04-21T12:26:31.816Z,17.52
2019-04-21T12:29:01.849Z,19.45
2019-04-21T12:31:39.286Z,20.70
2019-04-21T12:34:11.953Z,20.70
2019-04-21T12:36:42.114Z,17.20
2019-04-21T12:39:14.900Z,25.08
2019-04-21T12:41:44.675Z,20.15
2019-04-21T12:44:14.871Z,18.57
2019-04-21T12:46:45.592Z,19.55
2019-04-21T12:49:15.922Z,14.03
2019-04-21T12:51:46.101Z,13.10
2019-04-21T12:54:15.878Z,20.45
2019-04-21T12:56:45.673Z,19.55
2019-04-21T12:59:15.277Z,19.23
2019-04-21T13:01:45.263Z,22.62
2019-04-21T13:04:15.592Z,18.10
2019-04-21T13:06:45.723Z,15.98
2019-04-21T13:09:18.722Z,16.48
2019-04-21T13:11:46.995Z,23.20
2019-04-21T13:14:17.759Z,19.35
2019-04-21T13:16:47.842Z,17.02
2019-04-21T13:19:17.806Z,15.63
2019-04-21T13:21:47.902Z,14.28
2019-04-21T13:24:17.850Z,15.10
2019-04-21T13:26:53.576Z,13.50
2019-04-21T13:29:18.817Z,12.85
2019-04-21T13:31:48.354Z,13.95
2019-04-21T13:34:18.154Z,19.55
2019-04-21T13:36:49.718Z,15.93
2019-04-21T13:42:06.088Z,14.83
2019-04-21T13:44:26.695Z,16.45
2019-04-21T13:46:56.619Z,16.07
2019-04-21T13:49:27.368Z,17.07
2019-04-21T13:51:57.102Z,16.07
2019-04-21T13:54:33.719Z,14.83
2019-04-21T13:57:04.779Z,14.40
2019-04-21T13:59:36.188Z,14.60
2019-04-21T14:02:06.894Z,17.57
2019-04-21T14:04:37.861Z,11.78
2019-04-21T14:07:08.224Z,15.60
2019-04-21T14:09:48.963Z,18.82
2019-04-21T14:12:09.655Z,10.82
2019-04-21T14:14:39.599Z,13.25
2019-04-21T14:17:09.322Z,10.75
2019-04-21T14:19:39.426Z,12.73
2019-04-21T14:22:11.592Z,12.23
2019-04-21T14:24:41.665Z,17.65
2019-04-21T14:27:12.171Z,13.65
2019-04-21T14:29:41.948Z,13.83
2019-04-21T14:32:11.542Z,11.88
2019-04-21T14:34:41.962Z,10.65
2019-04-21T14:37:13.010Z,12.78
2019-04-21T14:39:52.827Z,13.25
2019-04-21T14:42:14.144Z,10.20
2019-04-21T14:44:45.096Z,11.90
2019-04-21T14:47:16.649Z,10.95
2019-04-21T14:49:51.046Z,13.45
2019-04-21T14:52:23.131Z,12.28
2019-04-21T14:54:54.600Z,13.13
2019-04-21T14:57:25.151Z,12.85
2019-04-21T14:59:55.182Z,12.93
2019-04-21T15:02:25.591Z,11.65
2019-04-21T15:04:55.695Z,12.75
2019-04-21T15:07:25.514Z,13.88
2019-04-21T15:10:04.425Z,11.85
2019-04-21T15:12:27.740Z,10.48
2019-04-21T15:14:58.168Z,10.25
2019-04-21T15:17:29.325Z,12.10
2019-04-21T15:20:04.625Z,12.15
2019-04-21T15:22:30.485Z,12.40
2019-04-21T15:25:00.592Z,10.43
2019-04-21T15:27:30.760Z,11.15
2019-04-21T15:30:00.651Z,10.45
2019-04-21T15:32:30.649Z,13.15
2019-04-21T15:35:00.446Z,11.12
2019-04-21T15:37:31.555Z,10.25
2019-04-21T15:40:12.262Z,12.00
2019-04-21T15:42:32.621Z,14.80
2019-04-21T15:45:02.929Z,10.82
2019-04-21T15:47:33.783Z,12.63
2019-04-21T15:50:10.179Z,12.53
2019-04-21T15:52:37.873Z,15.00
2019-04-21T15:55:10.622Z,11.33
2019-04-21T15:57:58.521Z,12.50
2019-04-21T16:00:30.979Z,12.60
2019-04-21T16:03:00.682Z,11.30
2019-04-21T16:05:30.849Z,13.35
2019-04-21T16:08:00.739Z,9.73
2019-04-21T16:10:39.495Z,12.65
2019-04-21T16:13:01.612Z,11.68
2019-04-21T16:15:32.493Z,15.83
2019-04-21T16:18:03.591Z,12.07
2019-04-21T16:20:33.288Z,12.33
2019-04-21T16:23:04.462Z,12.55
2019-04-21T16:25:36.964Z,10.20
2019-04-21T16:28:07.067Z,14.47
2019-04-21T16:30:38.115Z,12.85
2019-04-21T16:33:08.255Z,13.05
2019-04-21T16:35:37.993Z,11.48
2019-04-21T16:38:07.894Z,14.68
2019-04-21T16:40:48.159Z,12.75
2019-04-21T16:43:10.082Z,11.30
2019-04-21T16:45:41.004Z,15.32
2019-04-21T16:48:10.694Z,15.03
2019-04-21T16:50:41.500Z,19.52
2019-04-21T16:53:22.078Z,15.40
2019-04-21T16:56:06.999Z,13.40
2019-04-21T16:58:38.822Z,9.85
2019-04-21T17:01:14.907Z,11.63
2019-04-21T17:03:42.437Z,13.30
2019-04-21T17:06:13.206Z,12.28
2019-04-21T17:08:43.134Z,14.23
2019-04-21T17:11:19.269Z,13.40
2019-04-21T17:13:45.675Z,14.30
2019-04-21T17:16:43.450Z,13.98
2019-04-21T17:18:58.781Z,13.53
2019-04-21T17:21:17.660Z,15.90
2019-04-21T17:23:48.243Z,13.25
2019-04-21T17:26:19.221Z,11.65
2019-04-21T17:28:49.005Z,16.20
2019-04-21T17:31:18.577Z,12.33
2019-04-21T17:33:51.959Z,16.02
2019-04-21T17:36:19.412Z,14.55
2019-04-21T17:38:50.126Z,14.28
2019-04-21T17:41:27.833Z,12.07
2019-04-21T17:43:52.510Z,11.43
2019-04-21T17:46:30.489Z,11.73
2019-04-21T17:48:54.679Z,14.33
2019-04-21T17:51:32.009Z,13.65
2019-04-21T17:54:15.483Z,12.47
2019-04-21T17:56:59.604Z,10.30
2019-04-21T17:59:43.064Z,13.20
2019-04-21T18:02:02.207Z,12.13
2019-04-21T18:04:31.043Z,8.75
2019-04-21T18:06:56.464Z,9.83
2019-04-21T18:09:45.452Z,10.40
2019-04-21T18:12:07.962Z,12.37
2019-04-21T18:14:22.210Z,9.40
2019-04-21T18:16:53.392Z,10.65
2019-04-21T18:19:26.782Z,35.30
2019-04-21T18:21:59.526Z,10.72
2019-04-21T18:24:38.949Z,18.23
2019-04-21T18:27:04.289Z,12.80
2019-04-21T18:29:33.925Z,11.63
2019-04-21T18:32:04.052Z,9.88
2019-04-21T18:34:44.031Z,9.28
2019-04-21T18:37:18.564Z,11.22
2019-04-21T18:39:53.624Z,12.45
2019-04-21T18:42:46.501Z,15.98
2019-04-21T18:45:57.121Z,9.88
2019-04-21T18:48:12.483Z,10.53
2019-04-21T18:50:49.008Z,13.88
2019-04-21T18:53:44.767Z,14.33
2019-04-21T18:56:05.799Z,12.20
2019-04-21T18:58:32.667Z,17.42
2019-04-21T19:01:07.614Z,14.75
2019-04-21T19:03:39.936Z,13.28
2019-04-21T19:06:11.494Z,16.48
2019-04-21T19:08:59.219Z,15.00
2019-04-21T19:11:25.078Z,15.23
2019-04-21T19:14:20.997Z,17.07
2019-04-21T19:16:42.902Z,14.83
2019-04-21T19:19:35.203Z,15.20
2019-04-21T19:21:40.369Z,12.90
2019-04-21T19:24:41.211Z,12.25
2019-04-21T19:26:52.118Z,12.63
2019-04-21T19:29:23.981Z,12.75
2019-04-21T19:31:49.724Z,13.50
2019-04-21T19:34:08.364Z,11.83
2019-04-21T19:36:32.678Z,11.93
2019-04-21T19:39:10.640Z,13.00
2019-04-21T19:41:47.238Z,15.63
2019-04-21T19:44:22.141Z,10.50
2019-04-21T19:46:55.993Z,10.80
2019-04-21T19:49:27.110Z,9.80
2019-04-21T19:51:50.517Z,13.13
2019-04-21T19:54:18.726Z,10.85
2019-04-21T19:56:41.025Z,11.53
2019-04-21T19:59:11.868Z,10.75
2019-04-21T20:01:41.811Z,12.53
2019-04-21T20:04:12.459Z,14.25
2019-04-21T20:06:54.625Z,10.58
2019-04-21T20:09:32.435Z,10.85
2019-04-21T20:11:58.165Z,12.07
2019-04-21T20:14:46.693Z,11.20
2019-04-21T20:16:59.273Z,11.83
2019-04-21T20:19:19.684Z,12.68
2019-04-21T20:21:51.230Z,15.55
2019-04-21T20:24:26.774Z,13.62
2019-04-21T20:26:59.963Z,18.30
2019-04-21T20:29:44.650Z,13.62
2019-04-21T20:32:22.424Z,14.38
2019-04-21T20:34:49.041Z,16.27
2019-04-21T20:37:14.800Z,11.03
2019-04-21T20:39:41.748Z,12.33
2019-04-21T20:42:19.377Z,13.83
2019-04-21T20:44:53.097Z,17.37
2019-04-21T20:47:11.230Z,13.43
2019-04-21T20:49:41.532Z,13.72
2019-04-21T20:52:28.143Z,14.13
2019-04-21T20:54:48.212Z,16.85
2019-04-21T20:57:24.172Z,11.20
2019-04-21T20:59:50.904Z,14.18
2019-04-21T21:02:30.095Z,14.35
2019-04-21T21:04:46.925Z,13.80
2019-04-21T21:07:40.481Z,15.83
2019-04-21T21:10:06.225Z,16.02
2019-04-21T21:12:40.745Z,14.63
2019-04-21T21:14:57.778Z,12.90
2019-04-21T21:17:49.941Z,17.17
2019-04-21T21:20:07.908Z,17.32
2019-04-21T21:22:36.724Z,14.50
2019-04-21T21:25:11.562Z,15.63
2019-04-21T21:27:36.809Z,16.15
2019-04-21T21:30:08.302Z,20.52
2019-04-21T21:32:38.544Z,17.27
2019-04-21T21:35:13.207Z,18.95
2019-04-21T21:37:43.937Z,18.65
2019-04-21T21:40:18.024Z,15.95
2019-04-21T21:42:34.258Z,16.80
2019-04-21T21:45:07.748Z,19.65
2019-04-21T21:47:47.574Z,20.10
2019-04-21T21:50:11.079Z,16.73
2019-04-21T21:52:45.195Z,19.65
2019-04-21T21:55:07.736Z,18.98
2019-04-21T21:57:44.563Z,22.60
2019-04-21T22:00:12.410Z,20.55
2019-04-21T22:02:47.612Z,22.13
2019-04-21T22:05:21.706Z,16.42
2019-04-21T22:07:44.792Z,21.20
2019-04-21T22:10:15.962Z,18.07
2019-04-21T22:12:56.812Z,18.60
2019-04-21T22:15:22.607Z,19.80
2019-04-21T22:18:12.108Z,18.20
2019-04-21T22:20:37.817Z,19.37
2019-04-21T22:22:58.431Z,19.67
2019-04-21T22:25:29.473Z,17.37
2019-04-21T22:27:55.653Z,18.45
2019-04-21T22:30:34.922Z,19.50
2019-04-21T22:33:04.477Z,21.33
2019-04-21T22:35:38.111Z,19.70
2019-04-21T22:38:14.996Z,19.75
2019-04-21T22:40:49.083Z,18.65
2019-04-21T22:43:11.920Z,22.75
2019-04-21T22:45:35.583Z,23.40
2019-04-21T22:48:12.427Z,24.60
2019-04-21T22:50:40.394Z,24.82
2019-04-21T22:53:12.367Z,18.73
2019-04-21T22:55:42.968Z,21.45
2019-04-21T22:58:15.915Z,18.60
2019-04-21T23:00:51.185Z,21.48
2019-04-21T23:03:21.441Z,22.48
2019-04-21T23:05:48.913Z,21.75
2019-04-21T23:08:22.497Z,23.75
2019-04-21T23:10:57.441Z,21.07
2019-04-21T23:13:23.500Z,20.82
2019-04-21T23:15:56.779Z,21.07
2019-04-21T23:18:36.428Z,26.40
2019-04-21T23:21:10.476Z,18.00
2019-04-21T23:23:44.099Z,24.72
2019-04-21T23:26:20.899Z,21.57
2019-04-21T23:28:55.761Z,21.93
2019-04-21T23:31:19.809Z,20.17
2019-04-21T23:33:31.438Z,20.00
2019-04-21T23:36:10.598Z,18.73
2019-04-21T23:38:37.525Z,19.57
2019-04-21T23:41:07.489Z,19.87
2019-04-21T23:43:35.446Z,20.08
2019-04-21T23:46:13.160Z,21.40
2019-04-21T23:48:56.212Z,17.62
2019-04-21T23:51:21.903Z,21.30
2019-04-21T23:53:39.745Z,18.27
2019-04-21T23:56:13.422Z,20.23
2019-04-21T23:58:45.819Z,18.75
